createdAt,value
2023-04-16T00:01:58.965Z,7.85
2023-04-16T00:04:25.374Z,7.40
2023-04-16T00:06:51.703Z,7.45
2023-04-16T00:09:18.016Z,6.95
2023-04-16T00:11:44.277Z,7.53
2023-04-16T00:14:10.483Z,7.75
2023-04-16T00:16:36.777Z,7.55
2023-04-16T00:19:03.099Z,7.97
2023-04-16T00:21:29.358Z,7.65
2023-04-16T00:23:55.562Z,7.20
2023-04-16T00:26:21.761Z,8.38
2023-04-16T00:28:48.007Z,7.45
2023-04-16T00:31:14.242Z,7.88
2023-04-16T00:33:40.565Z,7.15
2023-04-16T00:36:07.336Z,8.02
2023-04-16T00:38:33.603Z,8.27
2023-04-16T00:40:59.798Z,7.32
2023-04-16T00:43:26.631Z,7.95
2023-04-16T00:45:53.628Z,6.97
2023-04-16T00:48:20.930Z,7.40
2023-04-16T00:50:47.319Z,7.18
2023-04-16T00:53:14.237Z,8.05
2023-04-16T00:55:40.884Z,8.02
2023-04-16T00:58:07.146Z,8.52
2023-04-16T01:00:33.390Z,8.15
2023-04-16T01:03:00.375Z,8.45
2023-04-16T01:05:26.753Z,8.73
2023-04-16T01:07:53.008Z,7.63
2023-04-16T01:10:19.222Z,8.43
2023-04-16T01:12:45.496Z,7.80
2023-04-16T01:15:11.699Z,8.65
2023-04-16T01:17:38.039Z,8.63
2023-04-16T01:20:04.384Z,9.20
2023-04-16T01:22:30.731Z,9.27
2023-04-16T01:24:56.930Z,9.05
2023-04-16T01:27:23.175Z,9.23
2023-04-16T01:29:49.450Z,9.10
2023-04-16T01:32:15.835Z,9.90
2023-04-16T01:34:42.109Z,9.55
2023-04-16T01:37:08.444Z,9.25
2023-04-16T01:39:34.654Z,10.02
2023-04-16T01:42:01.275Z,8.95
2023-04-16T01:44:27.884Z,9.57
2023-04-16T01:46:54.526Z,9.18
2023-04-16T01:49:20.788Z,9.70
2023-04-16T01:51:47.109Z,10.00
2023-04-16T01:54:13.295Z,9.25
2023-04-16T01:56:39.567Z,9.15
2023-04-16T01:59:05.785Z,10.38
2023-04-16T02:01:32.479Z,9.55
2023-04-16T02:03:58.942Z,8.68
2023-04-16T02:06:27.262Z,8.80
2023-04-16T02:08:53.462Z,9.85
2023-04-16T02:11:19.674Z,10.18
2023-04-16T02:13:45.894Z,9.82
2023-04-16T02:16:12.117Z,10.40
2023-04-16T02:18:38.372Z,9.38
2023-04-16T02:21:06.324Z,10.52
2023-04-16T02:23:32.631Z,10.38
2023-04-16T02:25:58.827Z,10.40
2023-04-16T02:28:25.145Z,10.80
2023-04-16T02:30:51.333Z,11.35
2023-04-16T02:33:17.545Z,9.88
2023-04-16T02:35:43.784Z,10.52
2023-04-16T02:38:10.037Z,10.57
2023-04-16T02:40:36.354Z,11.23
2023-04-16T02:43:02.655Z,11.25
2023-04-16T02:45:28.874Z,11.18
2023-04-16T02:47:55.162Z,10.02
2023-04-16T02:50:21.417Z,11.55
2023-04-16T02:52:47.682Z,11.25
2023-04-16T02:55:13.958Z,11.13
2023-04-16T02:57:40.691Z,11.02
2023-04-16T03:00:07.612Z,9.93
2023-04-16T03:02:33.950Z,11.40
2023-04-16T03:05:00.268Z,10.85
2023-04-16T03:07:26.476Z,9.50
2023-04-16T03:09:52.736Z,11.43
2023-04-16T03:12:18.977Z,11.90
2023-04-16T03:14:45.212Z,12.57
2023-04-16T03:17:11.488Z,13.02
2023-04-16T03:19:37.713Z,12.65
2023-04-16T03:22:04.156Z,12.27
2023-04-16T03:24:30.424Z,12.02
2023-04-16T03:26:57.465Z,12.43
2023-04-16T03:29:23.673Z,13.13
2023-04-16T03:31:49.967Z,13.63
2023-04-16T03:34:16.213Z,13.60
2023-04-16T03:36:42.444Z,12.90
2023-04-16T03:39:08.922Z,15.57
2023-04-16T03:41:35.257Z,15.30
2023-04-16T03:44:01.480Z,14.05
2023-04-16T03:46:27.767Z,12.93
2023-04-16T03:48:54.043Z,12.55
2023-04-16T03:51:20.422Z,13.27
2023-04-16T03:53:46.618Z,14.15
2023-04-16T03:56:12.823Z,13.45
2023-04-16T03:58:39.014Z,13.40
2023-04-16T04:01:05.367Z,13.50
2023-04-16T04:03:31.713Z,14.55
2023-04-16T04:05:58.166Z,13.85
2023-04-16T04:08:24.421Z,13.95
2023-04-16T04:10:51.113Z,14.95
2023-04-16T04:13:17.340Z,14.93
2023-04-16T04:15:44.168Z,14.85
2023-04-16T04:18:10.620Z,14.07
2023-04-16T04:20:39.712Z,13.70
2023-04-16T04:23:05.976Z,15.00
2023-04-16T04:25:32.262Z,14.60
2023-04-16T04:27:58.486Z,14.40
2023-04-16T04:30:24.706Z,15.40
2023-04-16T04:32:51.048Z,16.35
2023-04-16T04:35:17.339Z,14.93
2023-04-16T04:37:43.611Z,16.90
2023-04-16T04:40:09.997Z,22.23
2023-04-16T04:42:38.359Z,16.65
2023-04-16T04:45:05.051Z,19.67
2023-04-16T04:47:31.286Z,17.73
2023-04-16T04:49:57.530Z,16.80
2023-04-16T04:52:23.757Z,16.50
2023-04-16T04:54:49.982Z,14.48
2023-04-16T04:57:16.289Z,17.13
2023-04-16T04:59:42.493Z,16.45
2023-04-16T05:02:08.803Z,15.63
2023-04-16T05:04:35.088Z,15.27
2023-04-16T05:07:02.300Z,15.50
2023-04-16T05:09:28.515Z,15.60
2023-04-16T05:11:54.731Z,15.32
2023-04-16T05:14:20.966Z,16.00
2023-04-16T05:16:47.251Z,18.10
2023-04-16T05:19:13.471Z,16.33
2023-04-16T05:21:39.898Z,15.90
2023-04-16T05:24:06.196Z,15.73
2023-04-16T05:26:32.554Z,16.00
2023-04-16T05:28:58.800Z,14.48
2023-04-16T05:31:25.032Z,15.13
2023-04-16T05:33:51.277Z,15.57
2023-04-16T05:36:17.512Z,13.98
2023-04-16T05:38:43.699Z,14.90
2023-04-16T05:41:09.947Z,16.40
2023-04-16T05:43:36.237Z,15.70
2023-04-16T05:46:02.521Z,15.13
2023-04-16T05:48:28.741Z,15.35
2023-04-16T05:50:55.029Z,17.40
2023-04-16T05:53:21.253Z,15.40
2023-04-16T05:55:47.459Z,15.27
2023-04-16T05:58:13.742Z,14.65
2023-04-16T06:00:40.569Z,14.38
2023-04-16T06:03:06.944Z,14.50
2023-04-16T06:05:33.587Z,13.70
2023-04-16T06:07:59.839Z,14.57
2023-04-16T06:10:26.179Z,15.13
2023-04-16T06:12:52.456Z,14.57
2023-04-16T06:15:18.719Z,15.40
2023-04-16T06:17:45.043Z,15.57
2023-04-16T06:20:11.780Z,15.43
2023-04-16T06:22:38.001Z,16.70
2023-04-16T06:25:04.421Z,14.82
2023-04-16T06:27:31.112Z,16.02
2023-04-16T06:29:57.437Z,14.82
2023-04-16T06:32:23.747Z,15.18
2023-04-16T06:34:50.145Z,14.43
2023-04-16T06:37:16.447Z,13.88
2023-04-16T06:39:42.689Z,13.75
2023-04-16T06:42:08.910Z,14.05
2023-04-16T06:44:35.438Z,14.35
2023-04-16T06:47:01.700Z,14.40
2023-04-16T06:49:28.028Z,14.40
2023-04-16T06:51:54.302Z,14.02
2023-04-16T06:54:20.588Z,13.50
2023-04-16T06:56:46.847Z,13.13
2023-04-16T06:59:13.032Z,13.95
2023-04-16T07:01:39.269Z,13.60
2023-04-16T07:04:05.735Z,12.98
2023-04-16T07:06:32.427Z,12.77
2023-04-16T07:08:58.625Z,12.75
2023-04-16T07:11:25.801Z,12.65
2023-04-16T07:13:53.727Z,12.00
2023-04-16T07:16:19.976Z,11.40
2023-04-16T07:18:46.475Z,12.63
2023-04-16T07:21:12.712Z,11.05
2023-04-16T07:23:38.897Z,11.35
2023-04-16T07:26:05.309Z,12.63
2023-04-16T07:28:31.567Z,10.63
2023-04-16T07:30:57.881Z,11.30
2023-04-16T07:33:24.273Z,11.25
2023-04-16T07:35:51.249Z,12.10
2023-04-16T07:38:17.462Z,11.23
2023-04-16T07:40:43.734Z,12.55
2023-04-16T07:43:10.069Z,12.60
2023-04-16T07:45:36.311Z,12.65
2023-04-16T07:48:02.653Z,12.63
2023-04-16T07:50:28.938Z,13.40
2023-04-16T07:52:55.209Z,13.15
2023-04-16T07:55:21.500Z,14.13
2023-04-16T07:57:47.788Z,14.70
2023-04-16T08:00:14.264Z,15.68
2023-04-16T08:02:41.188Z,15.45
2023-04-16T08:05:07.629Z,17.15
2023-04-16T08:07:34.835Z,17.23
2023-04-16T08:10:01.289Z,20.67
2023-04-16T08:12:27.525Z,19.35
2023-04-16T08:14:53.813Z,21.67
2023-04-16T08:17:20.122Z,21.23
2023-04-16T08:19:46.362Z,22.75
2023-04-16T08:22:13.042Z,23.40
2023-04-16T08:24:39.558Z,23.95
2023-04-16T08:27:17.868Z,25.75
2023-04-16T08:29:45.743Z,26.05
2023-04-16T08:32:12.003Z,26.40
2023-04-16T08:34:38.311Z,27.92
2023-04-16T08:37:04.507Z,28.27
2023-04-16T08:39:30.779Z,28.67
2023-04-16T08:41:58.267Z,27.75
2023-04-16T08:44:28.617Z,28.17
2023-04-16T08:46:59.053Z,27.70
2023-04-16T08:49:25.960Z,27.37
2023-04-16T08:51:53.663Z,26.15
2023-04-16T08:54:36.542Z,26.77
2023-04-16T08:57:05.462Z,24.55
2023-04-16T08:59:31.902Z,25.40
2023-04-16T09:01:59.178Z,25.67
2023-04-16T09:04:29.199Z,24.60
2023-04-16T09:06:57.290Z,23.45
2023-04-16T09:09:23.651Z,24.27
2023-04-16T09:11:53.554Z,23.77
2023-04-16T09:14:20.106Z,24.30
2023-04-16T09:16:47.505Z,24.45
2023-04-16T09:19:14.444Z,25.42
2023-04-16T09:21:41.549Z,26.60
2023-04-16T09:24:08.707Z,27.27
2023-04-16T09:26:35.488Z,29.48
2023-04-16T09:29:02.054Z,29.25
2023-04-16T09:31:28.301Z,29.70
2023-04-16T09:34:05.535Z,29.00
2023-04-16T09:36:32.638Z,30.23
2023-04-16T09:38:59.284Z,29.05
2023-04-16T09:41:29.347Z,29.48
2023-04-16T09:43:56.478Z,28.33
2023-04-16T09:46:23.393Z,28.95
2023-04-16T09:48:49.686Z,29.67
2023-04-16T09:51:16.271Z,25.95
2023-04-16T09:53:42.487Z,26.00
2023-04-16T09:56:08.809Z,25.77
2023-04-16T09:58:41.668Z,25.58
2023-04-16T10:01:10.422Z,23.98
2023-04-16T10:03:38.290Z,23.92
2023-04-16T10:06:09.591Z,23.00
2023-04-16T10:08:36.196Z,23.90
2023-04-16T10:11:02.575Z,23.55
2023-04-16T10:13:30.889Z,22.77
2023-04-16T10:15:57.633Z,21.88
2023-04-16T10:18:23.811Z,23.35
2023-04-16T10:20:50.672Z,23.15
2023-04-16T10:23:17.074Z,23.35
2023-04-16T10:25:45.171Z,22.08
2023-04-16T10:28:12.638Z,24.83
2023-04-16T10:30:39.392Z,23.48
2023-04-16T10:33:06.028Z,24.38
2023-04-16T10:35:32.245Z,23.05
2023-04-16T10:38:18.406Z,24.77
2023-04-16T10:40:44.846Z,24.45
2023-04-16T10:43:16.995Z,23.92
2023-04-16T10:45:43.489Z,25.85
2023-04-16T10:48:09.940Z,24.75
2023-04-16T10:50:36.810Z,25.45
2023-04-16T10:53:20.149Z,25.45
2023-04-16T10:55:58.675Z,26.02
2023-04-16T10:58:31.702Z,25.73
2023-04-16T11:01:01.389Z,26.95
2023-04-16T11:03:31.778Z,31.80
2023-04-16T11:06:17.598Z,29.08
2023-04-16T11:08:53.978Z,32.78
2023-04-16T11:11:21.422Z,27.77
2023-04-16T11:13:47.604Z,27.40
2023-04-16T11:16:14.690Z,26.70
2023-04-16T11:18:43.181Z,24.33
2023-04-16T11:21:17.790Z,27.20
2023-04-16T11:23:51.434Z,26.20
2023-04-16T11:26:33.077Z,27.38
2023-04-16T11:29:00.163Z,27.90
2023-04-16T11:31:27.416Z,26.48
2023-04-16T11:33:59.281Z,27.15
2023-04-16T11:36:27.599Z,25.92
2023-04-16T11:39:00.862Z,24.63
2023-04-16T11:41:27.084Z,26.25
2023-04-16T11:43:53.333Z,24.42
2023-04-16T11:46:27.482Z,27.85
2023-04-16T11:48:55.417Z,26.17
2023-04-16T11:51:23.129Z,26.98
2023-04-16T11:53:53.162Z,25.02
2023-04-16T11:56:27.433Z,26.23
2023-04-16T11:59:13.381Z,26.17
2023-04-16T12:01:43.411Z,25.80
2023-04-16T12:04:09.925Z,26.88
2023-04-16T12:06:36.664Z,26.02
2023-04-16T12:09:21.410Z,25.95
2023-04-16T12:11:47.609Z,28.17
2023-04-16T12:14:13.959Z,26.67
2023-04-16T12:16:40.259Z,26.67
2023-04-16T12:19:06.872Z,25.63
2023-04-16T12:21:39.860Z,25.70
2023-04-16T12:24:07.302Z,25.48
2023-04-16T12:26:37.525Z,24.58
2023-04-16T12:29:19.321Z,26.77
2023-04-16T12:31:46.366Z,25.20
2023-04-16T12:34:14.984Z,24.73
2023-04-16T12:36:41.798Z,24.73
2023-04-16T12:39:08.193Z,22.92
2023-04-16T12:41:36.838Z,21.77
2023-04-16T12:44:12.409Z,23.00
2023-04-16T12:46:39.331Z,23.27
2023-04-16T12:49:05.740Z,21.98
2023-04-16T12:51:32.993Z,21.17
2023-04-16T12:53:59.720Z,20.67
2023-04-16T12:56:26.348Z,20.00
2023-04-16T12:58:52.738Z,20.38
2023-04-16T13:01:19.389Z,20.02
2023-04-16T13:03:46.214Z,19.83
2023-04-16T13:06:13.025Z,18.95
2023-04-16T13:08:39.584Z,18.38
2023-04-16T13:11:06.283Z,16.08
2023-04-16T13:13:32.732Z,16.38
2023-04-16T13:15:59.097Z,19.13
2023-04-16T13:18:26.190Z,19.00
2023-04-16T13:20:53.019Z,16.48
2023-04-16T13:23:19.338Z,16.55
2023-04-16T13:25:45.695Z,16.17
2023-04-16T13:28:11.926Z,15.30
2023-04-16T13:30:38.192Z,15.45
2023-04-16T13:33:04.431Z,15.15
2023-04-16T13:35:30.861Z,15.70
2023-04-16T13:37:57.057Z,14.82
2023-04-16T13:40:23.267Z,14.65
2023-04-16T13:42:49.511Z,14.73
2023-04-16T13:45:15.873Z,14.68
2023-04-16T13:47:43.335Z,14.10
2023-04-16T13:50:10.257Z,13.93
2023-04-16T13:52:36.481Z,13.65
2023-04-16T13:55:03.139Z,13.63
2023-04-16T13:57:29.534Z,14.13
2023-04-16T13:59:56.104Z,13.02
2023-04-16T14:02:22.610Z,13.77
2023-04-16T14:04:48.989Z,13.77
2023-04-16T14:07:15.456Z,14.35
2023-04-16T14:09:41.825Z,14.23
2023-04-16T14:12:08.188Z,14.68
2023-04-16T14:14:34.927Z,14.18
2023-04-16T14:17:01.569Z,14.10
2023-04-16T14:19:27.812Z,13.43
2023-04-16T14:21:54.337Z,14.23
2023-04-16T14:24:20.710Z,14.35
2023-04-16T14:26:46.934Z,14.52
2023-04-16T14:29:13.129Z,13.85
2023-04-16T14:31:39.382Z,13.82
2023-04-16T14:34:05.613Z,14.20
2023-04-16T14:36:31.838Z,14.20
2023-04-16T14:38:58.024Z,13.30
2023-04-16T14:41:25.109Z,13.60
2023-04-16T14:43:51.403Z,13.15
2023-04-16T14:46:17.854Z,13.00
2023-04-16T14:48:44.337Z,13.10
2023-04-16T14:51:10.797Z,13.57
2023-04-16T14:53:37.567Z,12.95
2023-04-16T14:56:04.153Z,12.80
2023-04-16T14:58:31.098Z,12.43
2023-04-16T15:01:00.660Z,12.85
2023-04-16T15:03:27.331Z,13.43
2023-04-16T15:05:56.476Z,13.30
2023-04-16T15:08:23.198Z,13.80
2023-04-16T15:10:50.033Z,13.73
2023-04-16T15:13:16.472Z,12.55
2023-04-16T15:15:43.459Z,13.07
2023-04-16T15:18:09.749Z,13.25
2023-04-16T15:20:36.009Z,14.43
2023-04-16T15:23:02.739Z,14.40
2023-04-16T15:25:29.072Z,14.00
2023-04-16T15:27:55.802Z,14.00
2023-04-16T15:30:22.084Z,14.60
2023-04-16T15:32:48.412Z,13.40
2023-04-16T15:35:14.711Z,13.15
2023-04-16T15:37:41.063Z,12.50
2023-04-16T15:40:08.335Z,13.00
2023-04-16T15:42:34.634Z,11.93
2023-04-16T15:45:01.376Z,12.40
2023-04-16T15:47:27.738Z,11.60
2023-04-16T15:49:54.024Z,12.68
2023-04-16T15:52:20.329Z,12.27
2023-04-16T15:54:46.548Z,11.80
2023-04-16T15:57:12.764Z,11.25
2023-04-16T15:59:39.005Z,12.25
2023-04-16T16:02:05.825Z,12.57
2023-04-16T16:04:32.495Z,12.25
2023-04-16T16:06:58.768Z,12.40
2023-04-16T16:09:28.046Z,12.18
2023-04-16T16:11:54.940Z,11.75
2023-04-16T16:14:21.659Z,11.90
2023-04-16T16:16:47.862Z,11.70
2023-04-16T16:19:14.350Z,12.32
2023-04-16T16:21:40.917Z,11.73
2023-04-16T16:24:07.601Z,11.40
2023-04-16T16:26:33.828Z,11.32
2023-04-16T16:29:01.273Z,12.40
2023-04-16T16:31:27.545Z,11.32
2023-04-16T16:33:53.750Z,12.10
2023-04-16T16:36:19.996Z,12.30
2023-04-16T16:38:47.303Z,11.30
2023-04-16T16:41:13.558Z,12.07
2023-04-16T16:43:39.892Z,11.52
2023-04-16T16:46:07.338Z,11.88
2023-04-16T16:48:33.584Z,11.77
2023-04-16T16:50:59.788Z,11.23
2023-04-16T16:53:26.082Z,11.40
2023-04-16T16:55:52.323Z,11.77
2023-04-16T16:58:18.613Z,12.00
2023-04-16T17:00:44.859Z,11.63
2023-04-16T17:03:11.483Z,12.20
2023-04-16T17:05:37.909Z,12.90
2023-04-16T17:08:04.224Z,12.90
2023-04-16T17:10:30.561Z,12.88
2023-04-16T17:12:57.224Z,13.23
2023-04-16T17:15:23.492Z,14.05
2023-04-16T17:17:49.863Z,15.90
2023-04-16T17:20:16.235Z,17.33
2023-04-16T17:22:42.537Z,18.33
2023-04-16T17:25:08.971Z,16.42
2023-04-16T17:27:35.225Z,18.08
2023-04-16T17:30:01.861Z,17.58
2023-04-16T17:32:28.669Z,17.40
2023-04-16T17:34:55.816Z,17.27
2023-04-16T17:37:22.448Z,16.83
2023-04-16T17:39:48.839Z,17.77
2023-04-16T17:42:15.237Z,16.65
2023-04-16T17:44:41.532Z,17.08
2023-04-16T17:47:07.734Z,16.95
2023-04-16T17:49:33.964Z,17.35
2023-04-16T17:52:00.403Z,16.50
2023-04-16T17:54:26.634Z,16.70
2023-04-16T17:56:52.880Z,17.73
2023-04-16T17:59:19.084Z,17.38
2023-04-16T18:01:45.434Z,17.45
2023-04-16T18:04:12.174Z,17.50
2023-04-16T18:06:38.757Z,17.88
2023-04-16T18:09:05.648Z,17.15
2023-04-16T18:11:32.033Z,17.20
2023-04-16T18:13:58.335Z,17.33
2023-04-16T18:16:24.615Z,16.67
2023-04-16T18:18:50.862Z,17.55
2023-04-16T18:21:17.077Z,18.35
2023-04-16T18:23:43.328Z,19.05
2023-04-16T18:26:11.054Z,17.90
2023-04-16T18:28:37.647Z,17.38
2023-04-16T18:31:06.497Z,16.73
2023-04-16T18:36:02.271Z,16.70
2023-04-16T18:38:30.377Z,18.60
2023-04-16T18:40:56.814Z,17.70
2023-04-16T18:43:23.864Z,18.15
2023-04-16T18:45:50.142Z,18.88
2023-04-16T18:48:16.418Z,18.77
2023-04-16T18:50:42.640Z,19.15
2023-04-16T18:53:08.831Z,18.73
2023-04-16T18:55:35.096Z,18.60
2023-04-16T18:58:01.516Z,18.98
2023-04-16T19:00:27.886Z,19.95
2023-04-16T19:02:54.185Z,19.20
2023-04-16T19:05:21.492Z,19.02
2023-04-16T19:07:48.095Z,19.75
2023-04-16T19:10:14.319Z,18.65
2023-04-16T19:12:40.785Z,17.70
2023-04-16T19:15:07.261Z,18.75
2023-04-16T19:17:33.515Z,18.67
2023-04-16T19:19:59.767Z,19.75
2023-04-16T19:22:26.136Z,17.98
2023-04-16T19:24:52.388Z,19.63
2023-04-16T19:27:18.612Z,19.63
2023-04-16T19:29:46.666Z,18.67
2023-04-16T19:32:14.189Z,19.08
2023-04-16T19:34:40.697Z,18.48
2023-04-16T19:37:06.957Z,19.45
2023-04-16T19:39:33.175Z,19.35
2023-04-16T19:41:59.494Z,20.00
2023-04-16T19:44:27.479Z,19.45
2023-04-16T19:46:53.733Z,19.40
2023-04-16T19:49:20.145Z,18.80
2023-04-16T19:51:46.410Z,19.15
2023-04-16T19:54:13.188Z,19.33
2023-04-16T19:56:39.410Z,18.55
2023-04-16T19:59:05.668Z,19.65
2023-04-16T20:01:31.914Z,20.17
2023-04-16T20:03:58.207Z,19.73
2023-04-16T20:06:25.195Z,19.42
2023-04-16T20:08:51.412Z,21.35
2023-04-16T20:11:17.668Z,19.13
2023-04-16T20:13:47.407Z,20.10
2023-04-16T20:16:13.890Z,19.50
2023-04-16T20:18:43.367Z,20.23
2023-04-16T20:21:09.952Z,20.42
2023-04-16T20:23:36.166Z,20.60
2023-04-16T20:26:02.470Z,21.70
2023-04-16T20:28:28.717Z,20.15
2023-04-16T20:30:54.962Z,21.00
2023-04-16T20:33:21.238Z,19.98
2023-04-16T20:35:47.500Z,19.48
2023-04-16T20:38:13.814Z,20.20
2023-04-16T20:40:40.026Z,21.05
2023-04-16T20:43:09.995Z,20.15
2023-04-16T20:45:40.688Z,18.67
2023-04-16T20:48:07.293Z,20.30
2023-04-16T20:50:33.780Z,19.20
2023-04-16T20:52:59.962Z,19.63
2023-04-16T20:55:26.502Z,20.95
2023-04-16T20:57:52.701Z,20.08
2023-04-16T21:00:19.012Z,20.70
2023-04-16T21:02:45.379Z,19.85
2023-04-16T21:05:14.465Z,20.33
2023-04-16T21:07:41.693Z,20.75
2023-04-16T21:10:11.149Z,19.60
2023-04-16T21:12:37.461Z,20.05
2023-04-16T21:15:04.153Z,18.65
2023-04-16T21:17:30.507Z,19.45
2023-04-16T21:19:56.872Z,18.33
2023-04-16T21:22:23.207Z,18.65
2023-04-16T21:24:49.432Z,19.63
2023-04-16T21:27:15.635Z,22.10
2023-04-16T21:29:41.868Z,19.67
2023-04-16T21:32:08.077Z,20.58
2023-04-16T21:34:34.357Z,20.23
2023-04-16T21:37:00.581Z,19.90
2023-04-16T21:39:30.745Z,19.35
2023-04-16T21:41:57.595Z,19.13
2023-04-16T21:44:23.853Z,20.15
2023-04-16T21:46:50.122Z,19.25
2023-04-16T21:49:16.525Z,19.48
2023-04-16T21:51:42.972Z,18.92
2023-04-16T21:54:09.163Z,19.27
2023-04-16T21:56:35.387Z,20.45
2023-04-16T21:59:01.745Z,20.27
2023-04-16T22:01:28.145Z,20.92
2023-04-16T22:03:54.573Z,19.92
2023-04-16T22:06:20.887Z,20.83
2023-04-16T22:08:49.595Z,19.70
2023-04-16T22:11:15.868Z,21.45
2023-04-16T22:13:42.311Z,20.75
2023-04-16T22:16:11.372Z,20.85
2023-04-16T22:18:38.582Z,20.85
2023-04-16T22:21:05.070Z,19.67
2023-04-16T22:23:31.344Z,20.50
2023-04-16T22:25:57.581Z,20.17
2023-04-16T22:28:23.782Z,20.20
2023-04-16T22:30:50.451Z,20.00
2023-04-16T22:33:16.719Z,21.13
2023-04-16T22:35:43.027Z,20.85
2023-04-16T22:38:09.989Z,20.65
2023-04-16T22:40:36.241Z,20.95
2023-04-16T22:43:02.450Z,20.05
2023-04-16T22:45:28.791Z,22.30
2023-04-16T22:47:55.100Z,23.50
2023-04-16T22:50:22.462Z,23.27
2023-04-16T22:52:48.666Z,22.42
2023-04-16T22:55:14.880Z,22.25
2023-04-16T22:57:41.200Z,21.95
2023-04-16T23:00:13.871Z,23.55
2023-04-16T23:02:40.151Z,23.05
2023-04-16T23:05:06.761Z,22.75
2023-04-16T23:07:32.976Z,24.80
2023-04-16T23:09:59.202Z,25.30
2023-04-16T23:12:25.423Z,24.48
2023-04-16T23:14:53.028Z,24.48
2023-04-16T23:17:19.259Z,25.67
2023-04-16T23:19:45.481Z,25.75
2023-04-16T23:22:11.744Z,27.08
2023-04-16T23:24:37.983Z,26.02
2023-04-16T23:27:04.204Z,27.25
2023-04-16T23:29:30.456Z,24.73
2023-04-16T23:31:58.298Z,27.45
2023-04-16T23:34:25.875Z,25.63
2023-04-16T23:36:52.149Z,27.80
2023-04-16T23:39:18.335Z,27.48
2023-04-16T23:41:44.864Z,28.88
2023-04-16T23:44:11.070Z,27.40
2023-04-16T23:46:38.802Z,29.63
2023-04-16T23:49:05.357Z,30.13
2023-04-16T23:51:31.592Z,30.23
2023-04-16T23:53:57.797Z,29.35
2023-04-16T23:56:24.079Z,30.50
2023-04-16T23:58:50.316Z,30.02
